Quick Links (Output Below):   Max & Min Temps   /   Climate Reports   /   Zone Forecasts
River Forecasts   /   Forestry Forecasts   /   Aviation Forecasts   /   Radars   /   Features

Terminal Aerodrome Forecast (Mountain Home)

Pick a Site:
Arkadelphia | El Dorado | Fayetteville | Fort Smith | Harrison | Highfill | Hot Springs | Jonesboro
Little Rock | Monticello | Mountain Home | Pine Bluff | Texarkana
 Forecast 

KBPK 241340Z 2414/2512 14008KT P6SM VCSH SCT025 OVC050
      TEMPO 2414/2417 4SM -RA BR BKN025 OVC040
     FM241700 15009KT P6SM VCSH SCT025 OVC050
      TEMPO 2417/2420 5SM -TSRA BR BKN025CB OVC040
     FM242000 16009KT P6SM VCTS BKN040CB OVC080
      TEMPO 2420/2424 4SM -TSRA BR OVC015CB
     FM250000 17009KT 6SM -TSRA BR OVC025CB
     FM250800 17008KT P6SM -RA VCTS BKN025CB OVC050=


 Latest METARs (Observations) 
How to Decode METARs
15Z KBPK 241453Z AUTO 16009G20KT 9SM SCT021 SCT065 BKN110 23/20 A2998
         RMK AO2 SLP144 60005 T02330200 58012
         
14Z KBPK 241353Z AUTO 14006KT 7SM FEW017 SCT055 SCT075 21/20 A3000 RMK
         AO2 RAE13 SLP152 P0000 T02110200
         
13Z KBPK 241251Z AUTO 13005KT 3SM -RA BR FEW027 BKN065 OVC095 19/19
         A3001 RMK AO2 RAE03B08E18B36 SLP156 P0005 T01940189
         
12Z KBPK 241153Z AUTO 15008KT 5SM -RA BR BKN021 BKN034 OVC080 20/18
         A3002 RMK AO2 RAB50 SLP156 P0000 60000 70003 T02000178 10200
         20189 53004
         
11Z KBPK 241053Z AUTO 14005KT 10SM BKN022 BKN070 BKN100 20/17 A3001
         RMK AO2 SLP154 T02000167
         
10Z KBPK 240953Z AUTO 14006KT 10SM BKN120 19/15 A3001 RMK AO2 SLP152
         T01890150
         
09Z KBPK 240853Z AUTO 12007KT 10SM CLR 19/14 A3001 RMK AO2 SLP155
         T01890144 56017
         
08Z KBPK 240753Z AUTO 13006KT 10SM CLR 19/14 A3002 RMK AO2 SLP158
         T01890144
         
07Z KBPK 240653Z AUTO 13006KT 10SM CLR 19/14 A3004 RMK AO2 SLP165
         T01940139
         
06Z KBPK 240553Z AUTO 12008KT 10SM CLR 19/14 A3006 RMK AO2 SLP173
         T01940139 10228 20194 402390133 58004
         
***** Today's Observations (Above) *****


Back to Main Page
http://www.srh.noaa.gov/lzk/qfcst.php

USA.gov is the U.S. government's official web portal to all federal, state and local government web resources and services.